createdAt,value
2023-05-25T00:23:10.832Z,8.07
2023-05-25T00:28:37.234Z,8.43
2023-05-25T00:59:41.710Z,7.43
2023-05-25T01:04:52.478Z,7.90
2023-05-25T01:10:14.954Z,6.87
2023-05-25T01:15:16.783Z,7.70
2023-05-25T01:20:19.824Z,7.17
2023-05-25T01:25:34.492Z,7.80
2023-05-25T01:30:37.449Z,7.97
2023-05-25T01:35:40.355Z,8.00
2023-05-25T01:40:42.147Z,7.83
2023-05-25T01:45:46.691Z,7.90
2023-05-25T01:51:17.275Z,9.10
2023-05-25T01:56:20.116Z,8.10
2023-05-25T02:01:23.111Z,7.43
2023-05-25T02:06:25.156Z,9.77
2023-05-25T02:11:39.470Z,9.43
2023-05-25T02:16:41.324Z,7.37
2023-05-25T02:21:43.199Z,9.53
2023-05-25T02:26:47.930Z,8.77
2023-05-25T02:31:49.925Z,8.60
2023-05-25T02:36:51.914Z,8.57
2023-05-25T02:41:55.971Z,8.23
2023-05-25T02:47:06.677Z,8.13
2023-05-25T02:52:12.284Z,7.50
2023-05-25T02:57:14.677Z,8.30
2023-05-25T03:08:32.924Z,7.20
2023-05-25T03:13:35.469Z,8.70
2023-05-25T03:18:37.543Z,7.60
2023-05-25T03:23:40.187Z,8.67
2023-05-25T03:28:42.138Z,8.67
2023-05-25T03:33:44.793Z,8.63
2023-05-25T03:38:49.018Z,8.67
2023-05-25T03:43:51.088Z,8.63
2023-05-25T03:48:55.948Z,9.43
2023-05-25T03:53:58.983Z,9.30
2023-05-25T03:59:01.048Z,7.73
2023-05-25T04:04:08.131Z,9.50
2023-05-25T04:09:11.375Z,8.73
2023-05-25T04:14:15.790Z,8.43
2023-05-25T04:19:17.961Z,8.47
2023-05-25T04:24:20.483Z,8.63
2023-05-25T04:29:22.666Z,8.30
2023-05-25T04:34:24.892Z,9.17
2023-05-25T04:39:26.793Z,9.33
2023-05-25T04:44:40.598Z,10.30
2023-05-25T04:49:45.263Z,8.90
2023-05-25T04:54:54.447Z,8.10
2023-05-25T04:59:58.366Z,8.53
2023-05-25T05:05:00.587Z,8.57
2023-05-25T05:10:03.476Z,9.27
2023-05-25T05:15:14.085Z,9.33
2023-05-25T05:21:02.316Z,9.13
2023-05-25T05:26:10.153Z,9.33
2023-05-25T05:31:26.271Z,19.63
2023-05-25T05:36:38.750Z,8.37
2023-05-25T05:41:47.234Z,9.87
2023-05-25T05:46:53.080Z,8.47
2023-05-25T05:51:56.058Z,8.63
2023-05-25T05:56:57.885Z,8.83
2023-05-25T06:02:04.561Z,7.67
2023-05-25T06:07:09.990Z,8.67
2023-05-25T06:12:11.970Z,8.50
2023-05-25T06:17:21.463Z,7.80
2023-05-25T06:22:31.942Z,8.07
2023-05-25T06:27:38.346Z,7.57
2023-05-25T06:32:46.313Z,7.83
2023-05-25T06:37:51.389Z,8.23
2023-05-25T06:42:55.697Z,7.30
2023-05-25T06:48:01.886Z,8.00
2023-05-25T06:53:06.886Z,7.23
2023-05-25T06:58:13.239Z,7.83
2023-05-25T07:03:16.454Z,7.13
2023-05-25T07:08:18.361Z,7.83
2023-05-25T07:13:23.220Z,9.30
2023-05-25T07:18:28.145Z,8.93
2023-05-25T07:23:34.000Z,9.07
2023-05-25T07:28:45.730Z,8.90
2023-05-25T07:33:48.846Z,9.30
2023-05-25T07:38:53.154Z,9.37
2023-05-25T07:43:57.959Z,8.90
2023-05-25T07:49:02.426Z,8.90
2023-05-25T07:54:04.433Z,9.73
2023-05-25T07:59:08.744Z,9.80
2023-05-25T08:04:12.478Z,8.30
2023-05-25T08:09:16.045Z,11.03
2023-05-25T08:14:23.881Z,9.27
2023-05-25T08:19:35.993Z,10.17
2023-05-25T08:24:43.916Z,9.30
2023-05-25T08:29:48.229Z,10.50
2023-05-25T08:34:52.598Z,10.53
2023-05-25T08:39:57.080Z,11.60
2023-05-25T08:45:00.704Z,11.00
2023-05-25T08:50:07.249Z,10.70
2023-05-25T08:55:13.817Z,10.77
2023-05-25T09:00:31.583Z,8.67
2023-05-25T09:11:16.300Z,9.57
2023-05-25T09:16:22.266Z,10.27
2023-05-25T09:21:34.491Z,10.77
2023-05-25T09:26:48.185Z,11.03
2023-05-25T09:32:01.458Z,10.70
2023-05-25T09:37:23.292Z,11.57
2023-05-25T09:42:36.021Z,10.33
2023-05-25T09:47:45.326Z,11.40
2023-05-25T09:52:50.488Z,11.23
2023-05-25T10:03:15.152Z,12.00
2023-05-25T10:08:22.027Z,12.17
2023-05-25T10:13:35.562Z,10.83
2023-05-25T10:18:44.859Z,10.47
2023-05-25T10:23:52.095Z,11.37
2023-05-25T10:29:00.396Z,9.70
2023-05-25T10:34:23.261Z,8.50
2023-05-25T10:39:34.554Z,9.43
2023-05-25T10:44:45.298Z,8.63
2023-05-25T10:50:00.411Z,7.30
2023-05-25T10:55:05.319Z,6.27
2023-05-25T11:00:12.396Z,6.57
2023-05-25T11:05:33.051Z,6.93
2023-05-25T11:10:47.417Z,6.97
2023-05-25T11:16:22.941Z,5.83
2023-05-25T11:21:35.408Z,5.13
2023-05-25T11:26:37.674Z,5.97
2023-05-25T11:31:43.971Z,5.67
2023-05-25T11:36:54.217Z,5.40
2023-05-25T11:42:06.973Z,6.30
2023-05-25T11:47:13.396Z,5.67
2023-05-25T11:52:27.959Z,4.97
2023-05-25T11:57:34.237Z,5.97
2023-05-25T12:02:41.240Z,5.80
2023-05-25T12:07:46.765Z,5.33
2023-05-25T12:12:52.355Z,4.47
2023-05-25T12:18:00.089Z,5.40
2023-05-25T12:23:02.561Z,5.17
2023-05-25T12:28:17.507Z,4.87
2023-05-25T12:33:31.201Z,5.10
2023-05-25T12:38:35.379Z,5.53
2023-05-25T12:43:46.011Z,5.40
2023-05-25T12:48:56.884Z,5.70
2023-05-25T12:53:58.954Z,5.17
2023-05-25T12:59:19.128Z,5.27
2023-05-25T13:04:32.595Z,5.70
2023-05-25T13:09:35.386Z,5.60
2023-05-25T13:14:49.226Z,5.93
2023-05-25T13:19:53.554Z,5.60
2023-05-25T13:25:06.697Z,5.30
2023-05-25T13:30:16.182Z,6.13
2023-05-25T13:35:36.905Z,5.83
2023-05-25T13:40:46.309Z,6.17
2023-05-25T13:45:53.183Z,6.20
2023-05-25T13:51:00.501Z,4.83
2023-05-25T13:56:10.516Z,4.70
2023-05-25T14:01:14.751Z,4.50
2023-05-25T14:06:20.881Z,5.43
2023-05-25T14:11:28.623Z,4.83
2023-05-25T14:16:31.735Z,5.40
2023-05-25T14:21:36.417Z,4.43
2023-05-25T14:26:38.530Z,4.90
2023-05-25T14:31:40.649Z,5.40
2023-05-25T14:36:44.726Z,6.23
2023-05-25T14:41:48.919Z,5.20
2023-05-25T14:46:55.001Z,5.60
2023-05-25T14:52:04.598Z,4.73
2023-05-25T14:57:08.333Z,4.83
2023-05-25T15:02:11.531Z,5.20
2023-05-25T15:07:16.874Z,4.40
2023-05-25T15:12:24.928Z,4.53
2023-05-25T15:17:32.586Z,5.53
2023-05-25T15:22:34.521Z,4.67
2023-05-25T15:27:36.501Z,4.00
2023-05-25T15:32:47.847Z,4.53
2023-05-25T15:37:52.567Z,4.67
2023-05-25T15:42:55.123Z,5.00
2023-05-25T15:47:59.794Z,5.70
2023-05-25T15:53:02.331Z,5.13
2023-05-25T15:58:09.059Z,6.00
2023-05-25T16:03:14.429Z,4.70
2023-05-25T16:08:21.012Z,6.57
2023-05-25T16:14:27.938Z,4.30
2023-05-25T16:33:08.466Z,5.33
2023-05-25T17:04:12.689Z,5.27
2023-05-25T17:14:36.501Z,5.47
2023-05-25T17:20:01.430Z,4.23
2023-05-25T20:08:45.265Z,6.67
2023-05-25T20:13:49.100Z,6.83
2023-05-25T20:18:53.433Z,5.97
2023-05-25T20:23:55.292Z,6.43
2023-05-25T20:29:00.140Z,6.00
2023-05-25T20:34:18.933Z,6.90
2023-05-25T20:39:26.197Z,6.27
2023-05-25T20:44:29.955Z,6.23
2023-05-25T20:49:31.739Z,5.63
2023-05-25T20:54:33.636Z,6.83
2023-05-25T20:59:38.437Z,5.03
2023-05-25T21:04:40.503Z,6.17
2023-05-25T21:09:42.400Z,3.67
2023-05-25T21:14:44.327Z,4.87
2023-05-25T22:05:34.799Z,4.33
2023-05-25T22:10:38.114Z,4.27
2023-05-25T22:15:39.938Z,4.73
2023-05-25T22:20:42.096Z,4.47
2023-05-25T22:25:44.319Z,5.17
2023-05-25T22:30:46.316Z,4.57
2023-05-25T22:35:48.186Z,4.90
2023-05-25T22:40:49.996Z,5.20
2023-05-25T22:45:54.153Z,4.33
2023-05-25T22:50:55.903Z,5.37
2023-05-25T22:55:57.855Z,5.63
2023-05-25T23:00:59.643Z,4.70
2023-05-25T23:06:01.518Z,5.80
2023-05-25T23:11:03.382Z,5.10
2023-05-25T23:16:05.411Z,5.90
2023-05-25T23:21:07.248Z,6.30
2023-05-25T23:26:09.017Z,4.67
2023-05-25T23:31:10.895Z,5.90
2023-05-25T23:36:12.670Z,5.37
2023-05-25T23:41:16.439Z,5.93
2023-05-25T23:46:18.315Z,6.77
2023-05-25T23:51:20.072Z,6.53
2023-05-25T23:56:22.033Z,6.20
